Time;durP1;ratioP1;P1;durP2;ratioP2;P2;SDS_P1;SDS_P2;PMS_P1;PMS_P2;Temp;Humidity;BMP_temperature;BMP_pressure;BME280_temperature;BME280_humidity;BME280_pressure;Samples;Min_cycle;Max_cycle;Signal;HPM_P1;HPM_P2
2023/06/17 00:03:57;;;;;;;1999.90;999.90;;;18.70;82.00;;;;;;6752112;88;20200;-81
2023/06/17 00:14:00;;;;;;;1999.90;999.90;;;18.70;82.10;;;;;;6752371;88;20248;-81
2023/06/17 00:24:00;;;;;;;1999.90;999.90;;;18.60;83.20;;;;;;6751633;88;20347;-81
2023/06/17 00:34:01;;;;;;;1999.90;999.90;;;18.30;85.00;;;;;;6752393;88;20266;-80
2023/06/17 00:44:02;;;;;;;1999.90;999.90;;;18.00;87.30;;;;;;6750831;88;20206;-81
2023/06/17 00:54:03;;;;;;;1999.90;999.90;;;17.90;90.30;;;;;;6753877;88;20192;-81
2023/06/17 01:04:06;;;;;;;1999.90;999.90;;;17.90;91.40;;;;;;6747553;88;20706;-81
2023/06/17 01:14:10;;;;;;;1999.90;999.90;;;17.50;95.00;;;;;;6752684;88;20196;-80
2023/06/17 01:24:13;;;;;;;1999.90;999.90;;;17.40;96.20;;;;;;6752080;88;20180;-81
2023/06/17 01:34:16;;;;;;;1999.90;999.90;;;17.30;98.20;;;;;;6753560;88;20219;-80
2023/06/17 01:44:19;;;;;;;1999.90;999.90;;;17.00;99.90;;;;;;6753255;88;20184;-80
2023/06/17 01:54:20;;;;;;;1999.90;999.90;;;16.90;99.90;;;;;;6755790;88;20194;-80
2023/06/17 02:04:20;;;;;;;1999.90;999.90;;;16.90;99.90;;;;;;6757456;88;20191;-82
2023/06/17 02:14:21;;;;;;;1999.90;999.90;;;16.90;99.90;;;;;;6759090;88;20522;-81
2023/06/17 02:24:21;;;;;;;1999.90;999.90;;;16.80;99.90;;;;;;6738743;88;20711;-81
2023/06/17 02:34:22;;;;;;;1999.90;999.90;;;16.80;99.90;;;;;;6755650;88;20199;-81
2023/06/17 02:44:22;;;;;;;1999.90;999.90;;;16.50;99.90;;;;;;6755913;88;20196;-81
2023/06/17 02:54:23;;;;;;;1999.90;999.90;;;16.30;99.90;;;;;;6772596;76;20613;-78
2023/06/17 03:04:24;;;;;;;1999.90;999.90;;;16.20;99.90;;;;;;6770162;87;20219;-77
2023/06/17 03:14:24;;;;;;;1999.90;999.90;;;16.20;99.90;;;;;;6770014;87;20202;-78
2023/06/17 03:24:25;;;;;;;1999.90;999.90;;;16.10;99.90;;;;;;6776705;87;20266;-77
2023/06/17 03:34:25;;;;;;;1999.90;999.90;;;15.90;99.90;;;;;;6769860;87;20217;-77
2023/06/17 03:44:26;;;;;;;1999.90;999.90;;;15.60;99.90;;;;;;6769895;87;20186;-77
2023/06/17 03:54:26;;;;;;;1999.90;999.90;;;15.50;99.90;;;;;;6752297;88;20741;-79
2023/06/17 04:04:28;;;;;;;1999.90;999.90;;;15.50;99.90;;;;;;6753349;88;20630;-78
2023/06/17 04:14:28;;;;;;;1999.90;999.90;;;15.40;99.90;;;;;;6755300;88;20679;-76
2023/06/17 04:24:29;;;;;;;1999.90;999.90;;;15.40;99.90;;;;;;6752494;88;20380;-76
2023/06/17 04:34:29;;;;;;;1999.90;999.90;;;15.70;99.90;;;;;;6754900;88;20207;-76
2023/06/17 04:44:31;;;;;;;1999.90;999.90;;;16.00;99.90;;;;;;6747769;88;20192;-76
2023/06/17 04:54:34;;;;;;;1999.90;999.90;;;16.00;99.90;;;;;;6751484;88;20225;-76
2023/06/17 05:04:34;;;;;;;1999.90;999.90;;;16.30;99.90;;;;;;6752073;88;20648;-77
2023/06/17 05:14:35;;;;;;;1999.90;999.90;;;16.30;99.90;;;;;;6752670;88;20187;-78
2023/06/17 05:24:35;;;;;;;1999.90;999.90;;;16.40;99.90;;;;;;6751688;88;20196;-76
2023/06/17 05:34:36;;;;;;;1999.90;999.90;;;16.70;99.90;;;;;;6751937;88;20318;-76
2023/06/17 05:44:36;;;;;;;1999.90;999.90;;;16.80;99.90;;;;;;6753034;88;20211;-76
2023/06/17 05:54:38;;;;;;;1999.90;999.90;;;17.30;99.90;;;;;;6751503;88;20212;-77
2023/06/17 06:04:39;;;;;;;1999.90;999.90;;;17.80;99.90;;;;;;6751887;88;20715;-76
2023/06/17 06:14:39;;;;;;;1999.90;999.90;;;18.60;99.90;;;;;;6752863;87;20246;-78
2023/06/17 06:24:40;;;;;;;1999.90;999.90;;;19.60;99.90;;;;;;6728462;87;20179;-77
2023/06/17 06:34:40;;;;;;;1999.90;999.90;;;20.50;98.20;;;;;;6732011;87;20199;-78
2023/06/17 06:44:41;;;;;;;1999.90;999.90;;;21.00;96.40;;;;;;6748330;87;20210;-79
2023/06/17 06:54:42;;;;;;;1999.90;999.90;;;21.80;95.70;;;;;;6757055;87;20217;-78
2023/06/17 07:04:43;;;;;;;1999.90;999.90;;;22.60;95.30;;;;;;6750798;87;20195;-77
2023/06/17 07:14:44;;;;;;;1999.90;999.90;;;23.00;93.20;;;;;;6747532;87;20233;-78
2023/06/17 07:24:45;;;;;;;1999.90;999.90;;;23.70;92.60;;;;;;6753263;87;20695;-78
2023/06/17 07:34:45;;;;;;;1999.90;999.90;;;24.30;91.90;;;;;;6740816;87;20363;-78
2023/06/17 07:44:46;;;;;;;1999.90;999.90;;;25.00;91.60;;;;;;6741676;87;20235;-77
2023/06/17 07:54:47;;;;;;;1999.90;999.90;;;25.60;90.60;;;;;;6742341;87;20507;-78
2023/06/17 08:04:49;;;;;;;1999.90;999.90;;;26.50;89.60;;;;;;6748113;87;20620;-78
2023/06/17 08:14:50;;;;;;;1999.90;999.90;;;26.50;87.20;;;;;;6742885;87;20246;-77
2023/06/17 08:24:51;;;;;;;1999.90;999.90;;;26.60;85.60;;;;;;6754212;87;20192;-77
2023/06/17 08:34:51;;;;;;;1999.90;999.90;;;26.90;84.80;;;;;;6751005;87;20703;-77
2023/06/17 08:44:54;;;;;;;1999.90;999.90;;;28.40;83.20;;;;;;6752407;87;20330;-77
2023/06/17 08:54:55;;;;;;;1999.90;999.90;;;28.90;77.40;;;;;;6712119;77;20266;-77
2023/06/17 09:04:56;;;;;;;1999.90;999.90;;;29.80;72.30;;;;;;6685994;88;20164;-79
2023/06/17 09:14:56;;;;;;;1999.90;999.90;;;30.20;71.20;;;;;;6669411;88;20543;-79
2023/06/17 09:24:58;;;;;;;1999.90;999.90;;;30.90;71.70;;;;;;6695360;88;20273;-77
2023/06/17 09:34:59;;;;;;;1999.90;999.90;;;30.90;69.00;;;;;;6691145;88;20242;-77
2023/06/17 09:45:06;;;;;;;1999.90;999.90;;;31.70;67.00;;;;;;6678373;88;20188;-76
2023/06/17 09:55:07;;;;;;;1999.90;999.90;;;32.90;65.30;;;;;;6657773;88;20764;-77
2023/06/17 10:05:11;;;;;;;1999.90;999.90;;;32.50;64.80;;;;;;6663992;88;20333;-77
2023/06/17 10:15:14;;;;;;;1999.90;999.90;;;33.20;63.30;;;;;;6685250;88;20191;-78
2023/06/17 10:25:15;;;;;;;1999.90;999.90;;;33.90;61.50;;;;;;6662714;88;20328;-77
2023/06/17 10:35:15;;;;;;;1999.90;999.90;;;33.80;60.20;;;;;;6658447;88;20666;-77
2023/06/17 10:45:16;;;;;;;1999.90;999.90;;;34.40;60.40;;;;;;6687532;88;20219;-77
2023/06/17 10:55:18;;;;;;;1999.90;999.90;;;33.80;58.00;;;;;;6677585;88;20196;-78
2023/06/17 11:05:18;;;;;;;1999.90;999.90;;;34.20;57.80;;;;;;6676669;88;20210;-77
2023/06/17 11:15:23;;;;;;;1999.90;999.90;;;34.00;58.40;;;;;;6707206;88;20204;-78
2023/06/17 11:25:25;;;;;;;1999.90;999.90;;;34.20;57.50;;;;;;6685178;88;20801;-76
2023/06/17 11:35:25;;;;;;;;;;;34.00;57.20;;;;;;6701453;88;20187;-77
2023/06/17 11:45:28;;;;;;;1999.90;999.90;;;35.10;56.50;;;;;;6692765;88;20080;-77
2023/06/17 11:55:33;;;;;;;1999.90;999.90;;;34.90;56.10;;;;;;6686839;88;20506;-78
2023/06/17 12:05:34;;;;;;;1999.90;999.90;;;35.20;56.60;;;;;;6708596;88;20228;-78
2023/06/17 12:15:34;;;;;;;;;;;34.80;55.60;;;;;;6694012;88;20189;-77
2023/06/17 12:25:35;;;;;;;1999.90;999.90;;;35.00;53.70;;;;;;6705631;88;20657;-77
2023/06/17 12:35:36;;;;;;;1999.90;999.90;;;35.60;52.30;;;;;;6685826;88;20258;-77
2023/06/17 12:45:37;;;;;;;1999.90;999.90;;;36.10;52.00;;;;;;6684692;88;20181;-78
2023/06/17 12:55:37;;;;;;;1999.90;999.90;;;35.90;49.90;;;;;;6695079;88;20171;-79
2023/06/17 13:05:38;;;;;;;1999.90;999.90;;;36.20;49.00;;;;;;6685035;88;20220;-77
2023/06/17 13:15:38;;;;;;;1999.90;999.90;;;36.60;48.90;;;;;;6683523;88;20212;-77
2023/06/17 13:25:39;;;;;;;1999.90;999.90;;;36.30;49.20;;;;;;6679499;88;20211;-78
2023/06/17 13:35:40;;;;;;;1999.90;999.90;;;35.90;48.60;;;;;;6683301;88;20206;-79
2023/06/17 13:45:41;;;;;;;1999.90;999.90;;;35.30;48.20;;;;;;6676487;89;20228;-78
2023/06/17 13:55:42;;;;;;;1999.90;999.90;;;34.90;51.60;;;;;;6681656;88;20161;-77
2023/06/17 14:05:43;;;;;;;1999.90;999.90;;;35.30;50.70;;;;;;6677520;88;20160;-78
2023/06/17 14:15:43;;;;;;;1999.90;999.90;;;36.00;51.30;;;;;;6677254;89;20620;-79
2023/06/17 14:25:44;;;;;;;1999.90;999.90;;;35.40;49.60;;;;;;6678078;89;20396;-79
2023/06/17 14:35:45;;;;;;;1999.90;999.90;;;35.40;49.40;;;;;;6678723;89;20192;-78
2023/06/17 14:45:45;;;;;;;1999.90;999.90;;;35.00;49.60;;;;;;6677311;89;20196;-78
2023/06/17 14:55:49;;;;;;;1999.90;999.90;;;34.50;49.40;;;;;;6680626;76;20241;-78
2023/06/17 15:05:51;;;;;;;1999.90;999.90;;;34.60;48.90;;;;;;6662561;88;20196;-79
2023/06/17 15:15:51;;;;;;;1999.90;999.90;;;34.50;48.00;;;;;;6668797;88;20223;-78
2023/06/17 15:25:52;;;;;;;1999.90;999.90;;;34.10;48.40;;;;;;6674871;88;20228;-78
2023/06/17 15:35:52;;;;;;;1999.90;999.90;;;34.30;47.80;;;;;;6670119;88;20215;-78
2023/06/17 15:45:53;;;;;;;1999.90;999.90;;;34.50;48.60;;;;;;6665928;88;20172;-79
2023/06/17 15:55:53;;;;;;;1999.90;999.90;;;34.00;48.00;;;;;;6666156;88;20246;-79
2023/06/17 16:05:55;;;;;;;1999.90;999.90;;;34.10;48.80;;;;;;6667105;89;20238;-78
2023/06/17 16:15:56;;;;;;;1999.90;999.90;;;33.50;48.80;;;;;;6665932;88;20256;-78
2023/06/17 16:25:56;;;;;;;1999.90;999.90;;;33.70;48.60;;;;;;6666900;89;20210;-78
2023/06/17 16:35:57;;;;;;;1999.90;999.90;;;32.70;49.50;;;;;;6661043;88;20193;-80
2023/06/17 16:45:57;;;;;;;1999.90;999.90;;;31.70;49.70;;;;;;6704864;88;20193;-79
2023/06/17 16:55:59;;;;;;;1999.90;999.90;;;31.40;50.80;;;;;;6668245;88;20208;-78
2023/06/17 17:05:59;;;;;;;1999.90;999.90;;;31.30;50.40;;;;;;6659978;89;20184;-79
2023/06/17 17:16:00;;;;;;;1999.90;999.90;;;30.90;50.90;;;;;;6675539;88;20196;-78
2023/06/17 17:26:00;;;;;;;1999.90;999.90;;;30.70;50.70;;;;;;6737048;88;20286;-78
2023/06/17 17:36:01;;;;;;;1999.90;999.90;;;30.60;49.50;;;;;;6723414;88;20196;-78
2023/06/17 17:46:04;;;;;;;1999.90;999.90;;;30.40;50.20;;;;;;6732600;88;20334;-77
2023/06/17 17:56:04;;;;;;;1999.90;999.90;;;30.00;50.10;;;;;;6654292;88;20229;-78
2023/06/17 18:06:05;;;;;;;1999.90;999.90;;;29.90;50.80;;;;;;6681501;88;20278;-78
2023/06/17 18:16:06;;;;;;;1999.90;999.90;;;29.50;51.60;;;;;;6656541;88;20557;-76
2023/06/17 18:26:08;;;;;;;1999.90;999.90;;;29.00;52.40;;;;;;6658100;88;20621;-77
2023/06/17 18:36:08;;;;;;;1999.90;999.90;;;28.60;53.70;;;;;;6669954;88;20194;-77
2023/06/17 18:46:09;;;;;;;1999.90;999.90;;;28.40;53.00;;;;;;6663457;88;20495;-77
2023/06/17 18:56:10;;;;;;;1999.90;999.90;;;28.20;54.40;;;;;;6668211;88;20221;-77
2023/06/17 19:06:10;;;;;;;1999.90;999.90;;;27.90;53.30;;;;;;6662081;89;20967;-78
2023/06/17 19:16:12;;;;;;;1999.90;999.90;;;27.30;54.10;;;;;;6666086;88;20540;-78
2023/06/17 19:26:12;;;;;;;1999.90;999.90;;;26.80;56.90;;;;;;6664526;88;20230;-78
2023/06/17 19:36:13;;;;;;;1999.90;999.90;;;26.20;57.70;;;;;;6668649;88;20204;-78
2023/06/17 19:46:13;;;;;;;1999.90;999.90;;;25.90;58.60;;;;;;6670363;88;20714;-78
2023/06/17 19:56:14;;;;;;;1999.90;999.90;;;25.60;59.00;;;;;;6674035;88;20278;-77
2023/06/17 20:06:14;;;;;;;1999.90;999.90;;;25.20;59.30;;;;;;6674853;88;20224;-76
2023/06/17 20:16:15;;;;;;;1999.90;999.90;;;25.00;59.10;;;;;;6671143;88;20684;-78
2023/06/17 20:26:16;;;;;;;1999.90;999.90;;;24.70;60.60;;;;;;6661756;88;20180;-77
2023/06/17 20:36:16;;;;;;;1999.90;999.90;;;24.30;63.80;;;;;;6660911;88;20541;-77
2023/06/17 20:46:17;;;;;;;1999.90;999.90;;;23.80;65.60;;;;;;6664851;88;20234;-79
2023/06/17 20:56:18;;;;;;;1999.90;999.90;;;23.30;66.90;;;;;;6668306;88;20247;-79
2023/06/17 21:06:18;;;;;;;1999.90;999.90;;;23.20;67.20;;;;;;6668529;89;20176;-79
2023/06/17 21:16:19;;;;;;;1999.90;999.90;;;22.80;68.50;;;;;;6673306;89;20222;-79
2023/06/17 21:26:19;;;;;;;1999.90;999.90;;;22.30;68.80;;;;;;6664112;88;20196;-77
2023/06/17 21:36:20;;;;;;;1999.90;999.90;;;22.00;70.00;;;;;;6660326;88;20540;-77
2023/06/17 21:46:26;;;;;;;1999.90;999.90;;;21.60;71.10;;;;;;6668281;88;20254;-77
2023/06/17 21:56:27;;;;;;;1999.90;999.90;;;21.20;71.90;;;;;;6660855;88;20303;-77
2023/06/17 22:06:27;;;;;;;1999.90;999.90;;;21.00;72.20;;;;;;6657360;88;20251;-77
2023/06/17 22:16:28;;;;;;;1999.90;999.90;;;20.70;73.60;;;;;;6657555;88;20693;-77
2023/06/17 22:26:28;;;;;;;1999.90;999.90;;;20.60;74.30;;;;;;6660967;88;20347;-77
2023/06/17 22:36:29;;;;;;;1999.90;999.90;;;20.30;74.80;;;;;;6657712;88;20191;-77
2023/06/17 22:46:29;;;;;;;1999.90;999.90;;;20.10;75.70;;;;;;6654962;88;20329;-77
2023/06/17 22:56:30;;;;;;;1999.90;999.90;;;19.70;76.70;;;;;;6661729;88;20585;-77
2023/06/17 23:06:30;;;;;;;1999.90;999.90;;;19.60;77.10;;;;;;6661191;88;20595;-77
2023/06/17 23:16:31;;;;;;;1999.90;999.90;;;19.30;78.00;;;;;;6665974;88;20891;-77
2023/06/17 23:26:33;;;;;;;1999.90;999.90;;;19.10;79.00;;;;;;6677548;88;20204;-77
2023/06/17 23:36:34;;;;;;;1999.90;999.90;;;18.90;80.20;;;;;;6664235;88;20363;-77
2023/06/17 23:46:38;;;;;;;1999.90;999.90;;;18.80;82.30;;;;;;6659559;88;20281;-77
2023/06/17 23:56:38;;;;;;;1999.90;999.90;;;18.70;82.00;;;;;;6659883;88;20218;-76
